Time;durP1;ratioP1;P1;durP2;ratioP2;P2;SDS_P1;SDS_P2;PMS_P1;PMS_P2;Temp;Humidity;BMP_temperature;BMP_pressure;BME280_temperature;BME280_humidity;BME280_pressure;Samples;Min_cycle;Max_cycle;Signal;HPM_P1;HPM_P2
2022/01/10 00:01:05;;;;;;;;;;;-3272.50;68.60;;;;;;5023613;28;19955;-90
2022/01/10 00:03:30;;;;;;;;;;;-3272.50;68.60;;;;;;5023650;28;19932;-90
2022/01/10 00:05:56;;;;;;;;;;;-3272.50;68.50;;;;;;5023595;28;19909;-91
2022/01/10 00:08:21;;;;;;;;;;;-3272.50;68.50;;;;;;5024389;28;20255;-90
2022/01/10 00:10:53;;;;;;;;;;;-3272.50;68.50;;;;;;5023757;28;19905;-90
2022/01/10 00:13:19;;;;;;;;;;;-3272.50;68.50;;;;;;5032109;28;19988;-90
2022/01/10 00:15:47;;;;;;;;;;;-3272.50;68.50;;;;;;5065048;28;19946;-91
2022/01/10 00:18:13;;;;;;;;;;;-3272.50;68.50;;;;;;5064617;28;19957;-90
2022/01/10 00:20:38;;;;;;;;;;;-3272.50;68.50;;;;;;5063688;28;20409;-91
2022/01/10 00:23:04;;;;;;;;;;;-3272.50;68.50;;;;;;5063356;28;20342;-92
2022/01/10 00:25:37;;;;;;;;;;;-3272.50;68.50;;;;;;5064983;28;20046;-90
2022/01/10 00:28:03;;;;;;;;;;;-3272.50;68.50;;;;;;5063949;28;19948;-91
2022/01/10 00:30:28;;;;;;;;;;;-3272.50;68.50;;;;;;5063426;28;19905;-91
2022/01/10 00:32:57;;;;;;;;;;;-3272.50;68.50;;;;;;5064777;28;20319;-90
2022/01/10 00:35:22;;;;;;;;;;;-3272.40;68.50;;;;;;5063822;28;19904;-91
2022/01/10 00:37:49;;;;;;;;;;;-3272.40;68.50;;;;;;5064396;28;19975;-90
2022/01/10 00:40:18;;;;;;;;;;;-3272.40;68.60;;;;;;5030938;28;19936;-90
2022/01/10 00:42:52;;;;;;;;;;;-3272.40;68.70;;;;;;5024808;28;20012;-91
2022/01/10 00:45:23;;;;;;;;;;;-3272.50;68.70;;;;;;5024855;28;20353;-90
2022/01/10 00:47:49;;;;;;;;;;;-3272.50;68.80;;;;;;5023783;28;20277;-91
2022/01/10 00:50:14;;;;;;;;;;;-3272.50;68.80;;;;;;5023507;28;19905;-91
2022/01/10 00:52:40;;;;;;;;;;;-3272.50;68.80;;;;;;5023645;28;19909;-90
2022/01/10 00:55:06;;;;;;;;;;;-3272.50;68.90;;;;;;5024404;28;19915;-91
2022/01/10 00:57:32;;;;;;;;;;;-3272.50;68.90;;;;;;5027058;28;19917;-91
2022/01/10 00:59:59;;;;;;;;;;;-3272.50;68.90;;;;;;5038708;28;19893;-91
2022/01/10 01:02:27;;;;;;;;;;;-3272.50;68.90;;;;;;5057915;28;19964;-90
2022/01/10 01:04:54;;;;;;;;;;;-3272.50;68.90;;;;;;5062093;28;19909;-90
2022/01/10 01:07:19;;;;;;;;;;;-3272.60;68.90;;;;;;5061793;28;20357;-91
2022/01/10 01:09:52;;;;;;;;;;;-3272.60;68.90;;;;;;5062342;28;19915;-90
2022/01/10 01:12:36;;;;;;;;;;;-3272.60;68.90;;;;;;5060283;28;19904;-90
2022/01/10 01:15:17;;;;;;;;;;;-3272.70;68.90;;;;;;5061821;28;19963;-90
2022/01/10 01:17:58;;;;;;;;;;;-3272.70;69.20;;;;;;5062572;28;20475;-90
2022/01/10 01:25:39;;;;;;;;;;;-3272.70;69.00;;;;;;5084004;28;20060;-90
2022/01/10 01:28:05;;;;;;;;;;;-3272.70;69.10;;;;;;5064874;28;20369;-92
2022/01/10 01:30:30;;;;;;;;;;;-3272.70;69.10;;;;;;5050980;28;19889;-91
2022/01/10 01:32:58;;;;;;;;;;;-3272.70;69.10;;;;;;5027156;28;19944;-91
2022/01/10 01:35:25;;;;;;;;;;;-3272.70;69.10;;;;;;5027238;28;19909;-92
2022/01/10 01:37:51;;;;;;;;;;;-3272.70;69.10;;;;;;5028767;28;19905;-91
2022/01/10 01:40:18;;;;;;;;;;;-3272.80;69.10;;;;;;5024771;28;19925;-90
2022/01/10 01:42:44;;;;;;;;;;;-3272.80;69.10;;;;;;5024421;28;20311;-91
2022/01/10 01:45:10;;;;;;;;;;;-3272.80;69.10;;;;;;5023272;28;19905;-91
2022/01/10 01:47:36;;;;;;;;;;;-3272.80;69.10;;;;;;5023724;28;20045;-92
2022/01/10 01:50:03;;;;;;;;;;;-3272.80;69.20;;;;;;5023308;28;19906;-91
2022/01/10 01:52:29;;;;;;;;;;;-3272.90;69.20;;;;;;5023448;28;19952;-91
2022/01/10 01:54:54;;;;;;;;;;;-3272.90;69.20;;;;;;5022880;28;19917;-90
2022/01/10 01:57:20;;;;;;;;;;;-3272.80;69.10;;;;;;5022711;28;19910;-90
2022/01/10 01:59:46;;;;;;;;;;;-3272.80;69.10;;;;;;5022277;28;19943;-91
2022/01/10 02:02:11;;;;;;;;;;;-3272.80;69.10;;;;;;5022331;28;19905;-90
2022/01/10 02:04:37;;;;;;;;;;;-3272.80;69.10;;;;;;5022324;28;19912;-91
2022/01/10 02:07:05;;;;;;;;;;;-3272.80;69.20;;;;;;5022542;28;19909;-90
2022/01/10 02:09:31;;;;;;;;;;;-3272.80;69.20;;;;;;5021645;28;19912;-91
2022/01/10 02:11:56;;;;;;;;;;;-3272.80;69.20;;;;;;5022429;28;19989;-90
2022/01/10 02:14:22;;;;;;;;;;;-3272.80;69.20;;;;;;5022354;28;19905;-90
2022/01/10 02:16:56;;;;;;;;;;;-3272.70;69.20;;;;;;5021501;28;20280;-90
2022/01/10 02:19:22;;;;;;;;;;;-3272.70;69.20;;;;;;5021976;28;19905;-91
2022/01/10 02:21:47;;;;;;;;;;;-3272.70;69.20;;;;;;5023487;28;19912;-90
2022/01/10 02:24:15;;;;;;;;;;;-3272.70;69.20;;;;;;5023601;28;19905;-90
2022/01/10 02:26:45;;;;;;;;;;;-3272.70;69.20;;;;;;5022724;28;20000;-91
2022/01/10 02:29:11;;;;;;;;;;;-3272.60;69.20;;;;;;5021331;28;19917;-91
2022/01/10 02:31:38;;;;;;;;;;;-3272.60;69.20;;;;;;5022797;28;19936;-90
2022/01/10 02:34:03;;;;;;;;;;;-3272.60;69.20;;;;;;5022202;28;19909;-91
2022/01/10 02:36:29;;;;;;;;;;;-3272.60;69.20;;;;;;5040397;28;19909;-91
2022/01/10 02:38:56;;;;;;;;;;;-3272.60;69.20;;;;;;5042493;28;19990;-90
2022/01/10 02:41:23;;;;;;;;;;;-3272.60;69.20;;;;;;5041719;28;20344;-89
2022/01/10 02:43:48;;;;;;;;;;;-3272.60;69.20;;;;;;5041980;28;19905;-91
2022/01/10 02:46:14;;;;;;;;;;;-3272.60;69.10;;;;;;5043618;28;19907;-90
2022/01/10 02:48:40;;;;;;;;;;;-3272.60;69.10;;;;;;5043406;28;19960;-92
2022/01/10 02:51:05;;;;;;;;;;;-3272.50;69.10;;;;;;5043884;28;19940;-91
2022/01/10 02:53:31;;;;;;;;;;;-3272.50;69.20;;;;;;5040134;28;19936;-90
2022/01/10 02:55:56;;;;;;;;;;;-3272.50;69.10;;;;;;5040793;28;19917;-90
2022/01/10 02:58:22;;;;;;;;;;;-3272.50;69.10;;;;;;5040540;28;19909;-90
2022/01/10 03:00:47;;;;;;;;;;;-3272.60;69.10;;;;;;5040475;28;19909;-91
2022/01/10 03:03:12;;;;;;;;;;;-3272.50;69.10;;;;;;5040778;28;19909;-91
2022/01/10 03:05:38;;;;;;;;;;;-3272.50;69.10;;;;;;5041122;28;19905;-90
2022/01/10 03:08:04;;;;;;;;;;;-3272.50;69.10;;;;;;5041137;28;20276;-90
2022/01/10 03:10:30;;;;;;;;;;;-3272.40;69.10;;;;;;5041586;28;19920;-91
2022/01/10 03:12:56;;;;;;;;;;;-3272.40;69.10;;;;;;5040939;28;19911;-91
2022/01/10 03:15:21;;;;;;;;;;;-3272.40;69.20;;;;;;5040759;28;20412;-91
2022/01/10 03:17:47;;;;;;;;;;;-3272.40;69.10;;;;;;5040157;28;19905;-91
2022/01/10 03:20:12;;;;;;;;;;;-3272.40;69.20;;;;;;5040204;28;19999;-91
2022/01/10 03:22:38;;;;;;;;;;;-3272.40;69.20;;;;;;5040376;28;19909;-91
2022/01/10 03:25:04;;;;;;;;;;;-3272.30;69.20;;;;;;5039871;28;19989;-90
2022/01/10 03:27:29;;;;;;;;;;;-3272.30;69.10;;;;;;5041421;28;20277;-91
2022/01/10 03:29:55;;;;;;;;;;;-3272.30;69.10;;;;;;5041712;28;20000;-91
2022/01/10 03:32:21;;;;;;;;;;;-3272.30;69.10;;;;;;5041106;28;19916;-91
2022/01/10 03:34:46;;;;;;;;;;;-3272.20;69.20;;;;;;5041066;28;19913;-89
2022/01/10 03:37:12;;;;;;;;;;;-3272.20;69.20;;;;;;5040841;28;19979;-91
2022/01/10 03:39:37;;;;;;;;;;;-3272.10;69.20;;;;;;5041166;28;19915;-90
2022/01/10 03:42:03;;;;;;;;;;;-3272.10;69.20;;;;;;5043907;28;19915;-91
2022/01/10 03:44:29;;;;;;;;;;;-3272.10;69.20;;;;;;5045452;28;19923;-92
2022/01/10 03:46:56;;;;;;;;;;;-3272.00;69.20;;;;;;5044403;28;19955;-91
2022/01/10 03:49:23;;;;;;;;;;;-3272.00;69.20;;;;;;5044039;28;19905;-90
2022/01/10 03:51:48;;;;;;;;;;;-3272.00;69.20;;;;;;5043621;28;19920;-90
2022/01/10 03:54:14;;;;;;;;;;;-3272.00;69.20;;;;;;5043355;28;19909;-90
2022/01/10 03:56:39;;;;;;;;;;;-3271.90;69.20;;;;;;5043328;28;19916;-90
2022/01/10 03:59:05;;;;;;;;;;;-3271.90;69.20;;;;;;5043868;28;20349;-90
2022/01/10 04:01:31;;;;;;;;;;;-3271.80;69.20;;;;;;5043935;28;19908;-91
2022/01/10 04:03:57;;;;;;;;;;;-3271.90;69.20;;;;;;5043664;28;19901;-91
2022/01/10 04:06:22;;;;;;;;;;;-3271.80;69.20;;;;;;5043933;28;19905;-89
2022/01/10 04:08:48;;;;;;;;;;;-3271.80;69.20;;;;;;5060536;28;19908;-91
2022/01/10 04:11:13;;;;;;;;;;;-3271.70;69.20;;;;;;5043329;28;19940;-89
2022/01/10 04:13:40;;;;;;;;;;;-3271.70;69.20;;;;;;5044242;28;19984;-91
2022/01/10 04:16:05;;;;;;;;;;;-3271.70;69.20;;;;;;5043432;28;19913;-90
2022/01/10 04:18:31;;;;;;;;;;;-3271.70;69.20;;;;;;5042798;28;19908;-90
2022/01/10 04:20:57;;;;;;;;;;;-3271.60;69.20;;;;;;5044535;28;19913;-90
2022/01/10 04:23:22;;;;;;;;;;;-3271.60;69.30;;;;;;5045092;28;19908;-89
2022/01/10 04:25:48;;;;;;;;;;;-3271.60;69.30;;;;;;5043875;28;19916;-89
2022/01/10 04:28:13;;;;;;;;;;;-3271.60;69.30;;;;;;5042275;28;19909;-89
2022/01/10 04:30:39;;;;;;;;;;;-3271.60;69.30;;;;;;5044475;28;19904;-89
2022/01/10 04:33:05;;;;;;;;;;;-3271.60;69.30;;;;;;5061162;28;19920;-90
2022/01/10 04:35:31;;;;;;;;;;;-3271.60;69.30;;;;;;5060035;28;20041;-90
2022/01/10 04:37:57;;;;;;;;;;;-3271.60;69.30;;;;;;5041662;28;19924;-90
2022/01/10 04:40:27;;;;;;;;;;;-3271.50;69.30;;;;;;5042739;28;19913;-90
2022/01/10 04:42:53;;;;;;;;;;;-3271.50;69.40;;;;;;5021434;28;20003;-90
2022/01/10 04:45:18;;;;;;;;;;;-3271.50;69.30;;;;;;5037545;28;19944;-91
2022/01/10 04:48:17;;;;;;;;;;;-3271.50;69.40;;;;;;5038098;28;19913;-90
2022/01/10 04:53:27;;;;;;;;;;;-3271.40;69.30;;;;;;5030877;28;19916;-90
2022/01/10 04:55:53;;;;;;;;;;;-3271.40;69.30;;;;;;5039229;28;19956;-89
2022/01/10 04:58:18;;;;;;;;;;;-3271.40;69.40;;;;;;5039437;28;19982;-90
2022/01/10 05:00:44;;;;;;;;;;;-3271.40;69.40;;;;;;5038920;28;19905;-90
2022/01/10 05:03:09;;;;;;;;;;;-3271.40;69.40;;;;;;5037486;28;20000;-90
2022/01/10 05:05:35;;;;;;;;;;;-3271.40;69.40;;;;;;5023760;28;19909;-91
2022/01/10 05:08:00;;;;;;;;;;;-3271.40;69.40;;;;;;5020238;28;20278;-91
2022/01/10 05:10:26;;;;;;;;;;;-3271.40;69.40;;;;;;5021503;28;19917;-91
2022/01/10 05:12:51;;;;;;;;;;;-3271.40;69.40;;;;;;5022648;28;20320;-90
2022/01/10 05:15:17;;;;;;;;;;;-3271.40;69.40;;;;;;5021995;28;19913;-91
2022/01/10 05:17:44;;;;;;;;;;;-3271.40;69.40;;;;;;5021501;28;19932;-90
2022/01/10 05:20:10;;;;;;;;;;;-3271.40;69.40;;;;;;5021571;28;19905;-90
2022/01/10 05:22:35;;;;;;;;;;;-3271.40;69.40;;;;;;5021608;28;19951;-91
2022/01/10 05:25:01;;;;;;;;;;;-3271.40;69.40;;;;;;5021907;28;19905;-90
2022/01/10 05:27:26;;;;;;;;;;;-3271.40;69.40;;;;;;5021574;28;19913;-90
2022/01/10 05:29:52;;;;;;;;;;;-3271.40;69.40;;;;;;5022171;28;19915;-91
2022/01/10 05:32:17;;;;;;;;;;;-3271.40;69.40;;;;;;5022517;28;20037;-90
2022/01/10 05:34:43;;;;;;;;;;;-3271.40;69.40;;;;;;5022611;28;19924;-91
2022/01/10 05:37:08;;;;;;;;;;;-3271.40;69.40;;;;;;5028583;28;19913;-91
2022/01/10 05:39:34;;;;;;;;;;;-3271.40;69.40;;;;;;5038658;28;20050;-91
2022/01/10 05:41:59;;;;;;;;;;;-3271.40;69.40;;;;;;5061216;28;19916;-91
2022/01/10 05:44:26;;;;;;;;;;;-3271.40;69.40;;;;;;5056339;28;19984;-90
2022/01/10 05:46:54;;;;;;;;;;;-3271.50;69.50;;;;;;5048494;28;20418;-90
2022/01/10 05:49:26;;;;;;;;;;;-3271.50;69.50;;;;;;5025268;28;20357;-90
2022/01/10 05:51:51;;;;;;;;;;;-3271.60;69.60;;;;;;5021584;28;19913;-90
2022/01/10 05:54:17;;;;;;;;;;;-3271.60;69.60;;;;;;5022673;28;19905;-90
2022/01/10 05:56:42;;;;;;;;;;;-3271.70;69.60;;;;;;5022736;28;19912;-90
2022/01/10 05:59:08;;;;;;;;;;;-3271.70;69.60;;;;;;5022333;28;20285;-91
2022/01/10 06:01:33;;;;;;;;;;;-3271.80;69.80;;;;;;5055454;28;19904;-91
2022/01/10 06:03:59;;;;;;;;;;;-3271.90;69.80;;;;;;5041501;28;19905;-90
2022/01/10 06:06:25;;;;;;;;;;;-3272.00;69.90;;;;;;5042990;28;19935;-91
2022/01/10 06:08:51;;;;;;;;;;;-3272.10;70.00;;;;;;5048747;28;19952;-88
2022/01/10 06:11:16;;;;;;;;;;;-3272.20;70.30;;;;;;5026042;28;19920;-91
2022/01/10 06:13:42;;;;;;;;;;;-3272.40;70.40;;;;;;5065544;28;19905;-91
2022/01/10 06:16:07;;;;;;;;;;;-3272.50;70.40;;;;;;5065621;28;19908;-91
2022/01/10 06:18:33;;;;;;;;;;;-3272.60;70.50;;;;;;5064628;28;19964;-91
2022/01/10 06:20:59;;;;;;;;;;;-3272.60;70.70;;;;;;5063776;28;19904;-90
2022/01/10 06:23:25;;;;;;;;;;;-3272.70;70.80;;;;;;5036914;28;19901;-89
2022/01/10 06:25:51;;;;;;;;;;;-3272.80;70.80;;;;;;5042174;28;19909;-90
2022/01/10 06:28:18;;;;;;;;;;;-3272.80;70.90;;;;;;5054585;28;19913;-91
2022/01/10 06:30:44;;;;;;;;;;;-3273.00;70.90;;;;;;5065292;28;19908;-90
2022/01/10 06:39:46;;;;;;;;;;;-3273.10;71.10;;;;;;5084061;28;19931;-90
2022/01/10 06:42:12;;;;;;;;;;;-3273.10;71.00;;;;;;5042454;28;19913;-91
2022/01/10 06:44:38;;;;;;;;;;;-3273.20;71.10;;;;;;5025013;28;19912;-90
2022/01/10 06:47:05;;;;;;;;;;;-3273.20;71.10;;;;;;5027544;28;20381;-90
2022/01/10 06:49:30;;;;;;;;;;;-3273.20;71.20;;;;;;5060292;28;20356;-89
2022/01/10 06:51:56;;;;;;;;;;;-3273.20;71.20;;;;;;5065147;28;19904;-89
2022/01/10 06:54:21;;;;;;;;;;;-3273.20;71.20;;;;;;5036175;28;19909;-91
2022/01/10 06:56:47;;;;;;;;;;;-3273.20;71.20;;;;;;5058789;28;19934;-89
2022/01/10 06:59:12;;;;;;;;;;;-3273.20;71.30;;;;;;5062463;28;19957;-90
2022/01/10 07:01:38;;;;;;;;;;;-3273.20;71.20;;;;;;5041211;28;20425;-90
2022/01/10 07:04:04;;;;;;;;;;;-3273.20;71.30;;;;;;5043071;28;19909;-91
2022/01/10 07:06:29;;;;;;;;;;;-3273.20;71.20;;;;;;5057809;28;19967;-91
2022/01/10 07:08:55;;;;;;;;;;;-3273.20;71.30;;;;;;5035578;28;19992;-91
2022/01/10 07:11:20;;;;;;;;;;;-3273.20;71.30;;;;;;5046756;28;19908;-90
2022/01/10 07:13:46;;;;;;;;;;;-3273.30;71.30;;;;;;5052061;28;19912;-90
2022/01/10 07:16:12;;;;;;;;;;;-3273.30;71.30;;;;;;5040008;28;19927;-91
2022/01/10 07:18:38;;;;;;;;;;;-3273.30;71.30;;;;;;5035025;28;19909;-90
2022/01/10 07:21:03;;;;;;;;;;;-3273.30;71.40;;;;;;5056595;28;19936;-90
2022/01/10 07:23:29;;;;;;;;;;;-3273.40;71.40;;;;;;5047156;28;19912;-91
2022/01/10 07:25:55;;;;;;;;;;;-3273.40;71.50;;;;;;5047154;28;19963;-89
2022/01/10 07:28:20;;;;;;;;;;;-3273.50;71.50;;;;;;5026452;28;19913;-90
2022/01/10 07:30:46;;;;;;;;;;;-3273.50;71.60;;;;;;5039415;28;19909;-90
2022/01/10 07:33:12;;;;;;;;;;;-3273.50;71.70;;;;;;5043423;28;19999;-89
2022/01/10 07:35:38;;;;;;;;;;;-3273.50;71.70;;;;;;5048289;28;19915;-90
2022/01/10 07:38:03;;;;;;;;;;;-3273.60;71.80;;;;;;5053283;28;20008;-91
2022/01/10 07:40:29;;;;;;;;;;;-3273.60;71.90;;;;;;5064948;28;19987;-91
2022/01/10 07:42:54;;;;;;;;;;;-3273.70;72.00;;;;;;5041804;28;19971;-91
2022/01/10 07:45:20;;;;;;;;;;;-3273.70;72.00;;;;;;5054632;28;19976;-90
2022/01/10 07:47:45;;;;;;;;;;;-3273.80;72.20;;;;;;5064223;28;19920;-91
2022/01/10 07:50:11;;;;;;;;;;;-3273.80;72.30;;;;;;5063517;28;19971;-89
2022/01/10 07:52:37;;;;;;;;;;;-3274.00;72.40;;;;;;5055291;28;19948;-90
2022/01/10 07:55:02;;;;;;;;;;;-3274.00;72.30;;;;;;5040795;28;19972;-90
2022/01/10 07:57:28;;;;;;;;;;;-3274.20;72.40;;;;;;5044795;28;19920;-90
2022/01/10 07:59:53;;;;;;;;;;;-3274.20;72.30;;;;;;5040257;28;20003;-91
2022/01/10 08:02:21;;;;;;;;;;;-3274.30;72.30;;;;;;5056292;28;19909;-86
2022/01/10 08:04:47;;;;;;;;;;;-3274.40;72.30;;;;;;5062053;28;19938;-90
2022/01/10 08:07:12;;;;;;;;;;;-3274.40;72.20;;;;;;5063491;28;19921;-87
2022/01/10 08:09:38;;;;;;;;;;;-3274.60;72.20;;;;;;5063559;28;20428;-87
2022/01/10 08:12:04;;;;;;;;;;;-3274.70;72.10;;;;;;5064793;28;19995;-87
2022/01/10 08:14:30;;;;;;;;;;;-3274.80;72.10;;;;;;5064928;28;19908;-86
2022/01/10 08:16:55;;;;;;;;;;;-3274.80;72.10;;;;;;5060889;28;20470;-86
2022/01/10 08:19:21;;;;;;;;;;;-3274.90;72.00;;;;;;5062690;28;19904;-88
2022/01/10 08:21:47;;;;;;;;;;;-3275.00;72.10;;;;;;5063157;28;19919;-87
2022/01/10 08:24:12;;;;;;;;;;;-3275.00;72.10;;;;;;5063075;28;19908;-85
2022/01/10 08:26:40;;;;;;;;;;;-3275.10;72.30;;;;;;5062647;28;19904;-86
2022/01/10 08:29:05;;;;;;;;;;;-3275.20;72.20;;;;;;5061310;28;20288;-87
2022/01/10 08:31:31;;;;;;;;;;;-3275.20;72.20;;;;;;5063185;28;19904;-87
2022/01/10 08:33:56;;;;;;;;;;;-3275.20;72.30;;;;;;5061626;28;19904;-86
2022/01/10 08:36:22;;;;;;;;;;;-3275.30;72.30;;;;;;5061830;28;20315;-86
2022/01/10 08:38:47;;;;;;;;;;;-3275.30;72.40;;;;;;5061242;28;19912;-86
2022/01/10 08:41:13;;;;;;;;;;;-3275.40;72.40;;;;;;5061986;28;20447;-86
2022/01/10 08:43:38;;;;;;;;;;;-3275.50;72.50;;;;;;5062220;28;19904;-86
2022/01/10 08:46:04;;;;;;;;;;;-3275.60;72.50;;;;;;5061686;28;19905;-86
2022/01/10 08:48:29;;;;;;;;;;;-3275.70;72.50;;;;;;5063699;28;19919;-86
2022/01/10 08:50:55;;;;;;;;;;;-3275.70;72.60;;;;;;5078801;28;19905;-86
2022/01/10 08:53:21;;;;;;;;;;;-3275.80;72.50;;;;;;5062017;28;19908;-86
2022/01/10 08:55:47;;;;;;;;;;;-3275.90;72.50;;;;;;5061110;28;20383;-86
2022/01/10 08:58:13;;;;;;;;;;;-3276.10;72.50;;;;;;5061084;28;19904;-86
2022/01/10 09:00:39;;;;;;;;;;;-3276.10;72.50;;;;;;5062117;28;19954;-86
2022/01/10 09:03:05;;;;;;;;;;;-3276.20;72.40;;;;;;5062902;28;19904;-86
2022/01/10 09:05:34;;;;;;;;;;;-3276.30;72.40;;;;;;5062298;28;19904;-88
2022/01/10 09:08:01;;;;;;;;;;;-3276.40;72.30;;;;;;5063077;28;19916;-85
2022/01/10 09:10:31;;;;;;;;;;;-3276.40;72.20;;;;;;5050570;28;20411;-81
2022/01/10 09:12:56;;;;;;;;;;;-3276.50;72.20;;;;;;5031895;28;20075;-81
2022/01/10 09:15:22;;;;;;;;;;;-3276.50;72.10;;;;;;5048585;28;19999;-81
2022/01/10 09:17:48;;;;;;;;;;;-3276.60;72.10;;;;;;5043247;28;20284;-81
2022/01/10 09:20:14;;;;;;;;;;;-3276.70;72.10;;;;;;5051509;28;19967;-80
2022/01/10 09:22:39;;;;;;;;;;;-3276.70;72.10;;;;;;5038582;28;19912;-80
2022/01/10 09:25:05;;;;;;;;;;;0.00;72.00;;;;;;5036892;28;19909;-80
2022/01/10 09:27:31;;;;;;;;;;;0.00;71.90;;;;;;5034492;28;19917;-80
2022/01/10 09:29:56;;;;;;;;;;;0.00;71.80;;;;;;5040488;28;20361;-82
2022/01/10 09:32:21;;;;;;;;;;;0.10;71.80;;;;;;5039822;28;19983;-81
2022/01/10 09:34:47;;;;;;;;;;;0.10;71.60;;;;;;5030244;28;20004;-81
2022/01/10 09:37:13;;;;;;;;;;;0.20;71.60;;;;;;5031243;28;19958;-80
2022/01/10 09:39:38;;;;;;;;;;;0.20;71.50;;;;;;5050310;28;19944;-80
2022/01/10 09:42:04;;;;;;;;;;;0.30;71.40;;;;;;5063171;28;19920;-81
2022/01/10 09:44:30;;;;;;;;;;;0.30;71.30;;;;;;5042573;28;20370;-80
2022/01/10 09:46:55;;;;;;;;;;;0.30;71.30;;;;;;5051710;28;19995;-80
2022/01/10 09:49:21;;;;;;;;;;;0.40;71.20;;;;;;5041712;28;19920;-80
2022/01/10 09:51:47;;;;;;;;;;;0.50;71.20;;;;;;5050031;28;19912;-81
2022/01/10 09:54:12;;;;;;;;;;;0.60;71.10;;;;;;5059766;28;20276;-80
2022/01/10 09:56:38;;;;;;;;;;;0.60;71.00;;;;;;5038128;28;19913;-81
2022/01/10 09:59:03;;;;;;;;;;;0.70;70.90;;;;;;5041110;28;19904;-80
2022/01/10 10:01:30;;;;;;;;;;;0.80;70.80;;;;;;5036556;28;19909;-79
2022/01/10 10:03:58;;;;;;;;;;;0.80;70.70;;;;;;5043416;28;19951;-80
2022/01/10 10:06:25;;;;;;;;;;;0.80;70.60;;;;;;5046771;28;19913;-80
2022/01/10 10:08:50;;;;;;;;;;;0.80;70.50;;;;;;5043983;28;19913;-80
2022/01/10 10:11:16;;;;;;;;;;;0.90;70.50;;;;;;5041945;28;19983;-81
2022/01/10 10:13:51;;;;;;;;;;;1.00;70.40;;;;;;5052095;28;19908;-80
2022/01/10 10:16:17;;;;;;;;;;;1.00;70.30;;;;;;5057388;28;20391;-81
2022/01/10 10:18:46;;;;;;;;;;;1.10;70.20;;;;;;5041897;28;19909;-81
2022/01/10 10:21:12;;;;;;;;;;;1.10;70.10;;;;;;5035224;28;19909;-81
2022/01/10 10:23:40;;;;;;;;;;;1.10;70.10;;;;;;5058684;28;19909;-81
2022/01/10 10:26:06;;;;;;;;;;;1.20;70.00;;;;;;5042302;28;19913;-81
2022/01/10 10:28:32;;;;;;;;;;;1.20;69.90;;;;;;5052089;28;19912;-80
2022/01/10 10:31:02;;;;;;;;;;;1.20;69.70;;;;;;5038131;28;19909;-80
2022/01/10 10:33:27;;;;;;;;;;;1.20;69.70;;;;;;5038961;28;20002;-80
2022/01/10 10:35:55;;;;;;;;;;;1.30;69.80;;;;;;5041548;28;19955;-80
2022/01/10 10:38:20;;;;;;;;;;;1.30;69.80;;;;;;5066005;28;19908;-80
2022/01/10 10:40:46;;;;;;;;;;;1.40;69.70;;;;;;5052562;28;19962;-82
2022/01/10 10:43:12;;;;;;;;;;;1.40;69.70;;;;;;5039260;28;19919;-84
2022/01/10 10:45:38;;;;;;;;;;;1.40;69.70;;;;;;5030460;28;19909;-80
2022/01/10 10:48:06;;;;;;;;;;;1.50;69.60;;;;;;5040954;28;19961;-81
2022/01/10 10:50:36;;;;;;;;;;;1.50;69.50;;;;;;5038631;28;20366;-82
2022/01/10 10:53:05;;;;;;;;;;;1.60;69.40;;;;;;5033090;28;19916;-81
2022/01/10 10:55:32;;;;;;;;;;;1.60;69.30;;;;;;5036776;28;19909;-81
2022/01/10 10:57:59;;;;;;;;;;;1.70;69.30;;;;;;5041306;28;19908;-79
2022/01/10 11:00:24;;;;;;;;;;;1.70;69.20;;;;;;5039959;28;19970;-81
2022/01/10 11:02:50;;;;;;;;;;;1.80;69.20;;;;;;5037525;28;19909;-81
2022/01/10 11:05:16;;;;;;;;;;;1.80;69.00;;;;;;5037503;28;19906;-81
2022/01/10 11:07:42;;;;;;;;;;;1.80;68.90;;;;;;5048522;28;19912;-81
2022/01/10 11:10:08;;;;;;;;;;;1.80;68.80;;;;;;5039879;28;19909;-81
2022/01/10 11:12:35;;;;;;;;;;;1.80;68.70;;;;;;5036777;28;19916;-80
2022/01/10 11:15:00;;;;;;;;;;;1.80;68.70;;;;;;5046643;28;19955;-82
2022/01/10 11:17:27;;;;;;;;;;;1.80;68.60;;;;;;5038965;28;19923;-81
2022/01/10 11:20:11;;;;;;;;;;;1.80;68.60;;;;;;5059710;28;19908;-82
2022/01/10 11:22:40;;;;;;;;;;;1.80;68.60;;;;;;5065295;28;19912;-82
2022/01/10 11:25:17;;;;;;;;;;;1.80;68.60;;;;;;5036221;28;19909;-81
2022/01/10 11:27:47;;;;;;;;;;;1.90;68.60;;;;;;5045259;28;19912;-83
2022/01/10 11:30:25;;;;;;;;;;;1.90;68.60;;;;;;5048636;28;19974;-82
2022/01/10 11:32:51;;;;;;;;;;;1.90;68.60;;;;;;5042199;28;19913;-82
2022/01/10 11:35:18;;;;;;;;;;;1.90;68.50;;;;;;5039774;28;19932;-80
2022/01/10 11:37:44;;;;;;;;;;;1.90;68.50;;;;;;5044889;28;19915;-81
2022/01/10 11:40:11;;;;;;;;;;;1.90;68.50;;;;;;5029764;28;19920;-82
2022/01/10 11:42:45;;;;;;;;;;;1.90;68.40;;;;;;5042214;28;19924;-82
2022/01/10 11:45:12;;;;;;;;;;;1.90;68.40;;;;;;5044502;28;19906;-83
2022/01/10 11:47:56;;;;;;;;;;;1.90;68.40;;;;;;5040909;28;19923;-82
2022/01/10 11:50:32;;;;;;;;;;;1.90;68.40;;;;;;5045039;28;20372;-82
2022/01/10 11:53:01;;;;;;;;;;;1.90;68.50;;;;;;5056331;28;19908;-81
2022/01/10 11:55:37;;;;;;;;;;;1.90;68.50;;;;;;5049158;28;19909;-82
2022/01/10 11:58:15;;;;;;;;;;;1.90;68.50;;;;;;5056916;28;19916;-82
2022/01/10 12:00:44;;;;;;;;;;;1.90;68.60;;;;;;5042168;28;19944;-81
2022/01/10 12:03:09;;;;;;;;;;;1.90;68.60;;;;;;5035105;28;19916;-82
2022/01/10 12:05:35;;;;;;;;;;;1.90;68.60;;;;;;5043632;28;19908;-82
2022/01/10 12:08:04;;;;;;;;;;;1.90;68.50;;;;;;5028288;28;19936;-82
2022/01/10 12:10:30;;;;;;;;;;;1.90;68.50;;;;;;5043750;28;20003;-82
2022/01/10 12:13:11;;;;;;;;;;;1.90;68.50;;;;;;5047668;28;19909;-81
2022/01/10 12:15:37;;;;;;;;;;;1.90;68.50;;;;;;5036886;28;20423;-83
2022/01/10 12:18:07;;;;;;;;;;;1.90;68.40;;;;;;5035540;28;19909;-81
2022/01/10 12:20:32;;;;;;;;;;;1.90;68.40;;;;;;5046808;28;19909;-81
2022/01/10 12:23:00;;;;;;;;;;;1.90;68.40;;;;;;5051255;28;20007;-82
2022/01/10 12:25:25;;;;;;;;;;;1.90;68.40;;;;;;5030701;28;19917;-81
2022/01/10 12:27:53;;;;;;;;;;;1.90;68.40;;;;;;5030540;28;19916;-81
2022/01/10 12:30:20;;;;;;;;;;;1.90;68.50;;;;;;5034405;28;19909;-82
2022/01/10 12:32:46;;;;;;;;;;;1.90;68.50;;;;;;5053364;28;19938;-82
2022/01/10 12:35:11;;;;;;;;;;;1.90;68.60;;;;;;5036401;28;20389;-82
2022/01/10 12:37:37;;;;;;;;;;;1.90;68.60;;;;;;5059082;28;19908;-81
2022/01/10 12:40:03;;;;;;;;;;;1.80;68.60;;;;;;5038975;28;19905;-81
2022/01/10 12:42:29;;;;;;;;;;;1.80;68.70;;;;;;5027697;28;19920;-83
2022/01/10 12:44:54;;;;;;;;;;;1.80;68.70;;;;;;5016447;28;19913;-81
2022/01/10 12:47:20;;;;;;;;;;;1.80;68.80;;;;;;5034506;28;19917;-82
2022/01/10 12:49:47;;;;;;;;;;;1.80;68.80;;;;;;5042930;28;20353;-82
2022/01/10 12:52:13;;;;;;;;;;;1.80;68.80;;;;;;5040640;28;20018;-82
2022/01/10 12:54:38;;;;;;;;;;;1.80;68.90;;;;;;5050134;28;20250;-83
2022/01/10 12:57:05;;;;;;;;;;;1.80;68.90;;;;;;5038536;28;19916;-82
2022/01/10 12:59:31;;;;;;;;;;;1.80;68.90;;;;;;5049470;28;19908;-82
2022/01/10 13:01:58;;;;;;;;;;;1.80;68.80;;;;;;5016494;28;19916;-81
2022/01/10 13:04:25;;;;;;;;;;;1.80;68.90;;;;;;5039246;28;19919;-82
2022/01/10 13:06:51;;;;;;;;;;;1.80;68.90;;;;;;5032381;28;20420;-82
2022/01/10 13:09:17;;;;;;;;;;;1.80;68.90;;;;;;5041498;28;19919;-82
2022/01/10 13:11:46;;;;;;;;;;;1.80;68.90;;;;;;5025239;28;19980;-81
2022/01/10 13:14:17;;;;;;;;;;;1.80;69.00;;;;;;5040279;28;19909;-82
2022/01/10 13:16:44;;;;;;;;;;;1.80;69.00;;;;;;5041428;28;19908;-83
2022/01/10 13:19:11;;;;;;;;;;;1.80;69.00;;;;;;5041561;28;20468;-82
2022/01/10 13:21:40;;;;;;;;;;;1.70;69.00;;;;;;5059702;28;19913;-82
2022/01/10 13:24:06;;;;;;;;;;;1.80;69.10;;;;;;5047581;28;19909;-81
2022/01/10 13:26:32;;;;;;;;;;;1.80;69.10;;;;;;5031260;28;19940;-82
2022/01/10 13:28:58;;;;;;;;;;;1.80;69.00;;;;;;5043954;28;19959;-80
2022/01/10 13:31:37;;;;;;;;;;;1.70;69.10;;;;;;5053816;28;19908;-82
2022/01/10 13:34:02;;;;;;;;;;;1.80;69.10;;;;;;5040356;28;19936;-81
2022/01/10 13:36:41;;;;;;;;;;;1.80;69.20;;;;;;5040700;28;19908;-82
2022/01/10 13:39:16;;;;;;;;;;;1.80;69.20;;;;;;5052029;28;20326;-82
2022/01/10 13:41:55;;;;;;;;;;;1.80;69.10;;;;;;5010226;28;19913;-82
2022/01/10 13:44:21;;;;;;;;;;;1.80;69.20;;;;;;5019067;28;19909;-82
2022/01/10 13:46:46;;;;;;;;;;;1.80;69.10;;;;;;4983113;28;19920;-82
2022/01/10 13:49:25;;;;;;;;;;;1.80;69.20;;;;;;4989972;28;19932;-83
2022/01/10 13:52:09;;;;;;;;;;;1.80;69.20;;;;;;4977844;28;20332;-83
2022/01/10 13:54:35;;;;;;;;;;;1.70;69.20;;;;;;5014637;28;19909;-83
2022/01/10 13:57:22;;;;;;;;;;;1.70;69.20;;;;;;4997076;28;19977;-83
2022/01/10 14:00:08;;;;;;;;;;;1.70;69.20;;;;;;5030301;28;20004;-82
2022/01/10 14:02:37;;;;;;;;;;;1.70;69.30;;;;;;5000218;28;19919;-82
2022/01/10 14:05:23;;;;;;;;;;;1.70;69.30;;;;;;5015258;28;19916;-82
2022/01/10 14:07:49;;;;;;;;;;;1.70;69.40;;;;;;5029515;28;19913;-81
2022/01/10 14:10:15;;;;;;;;;;;1.70;69.40;;;;;;4997525;28;19906;-81